sensor_id;sensor_type;location;lat;lon;timestamp;P1;durP1;ratioP1;P2;durP2;ratioP2
21299;SDS011;10809;49.476;11.016;2022-12-07T00:02:00;3.97;;;3.27;;
21299;SDS011;10809;49.476;11.016;2022-12-07T00:04:31;4.40;;;3.13;;
21299;SDS011;10809;49.476;11.016;2022-12-07T00:07:01;4.83;;;4.00;;
21299;SDS011;10809;49.476;11.016;2022-12-07T00:09:32;6.13;;;4.47;;
21299;SDS011;10809;49.476;11.016;2022-12-07T00:12:02;4.47;;;3.33;;
21299;SDS011;10809;49.476;11.016;2022-12-07T00:14:33;4.53;;;3.80;;
21299;SDS011;10809;49.476;11.016;2022-12-07T00:17:03;4.30;;;3.70;;
21299;SDS011;10809;49.476;11.016;2022-12-07T00:19:34;4.77;;;3.53;;
21299;SDS011;10809;49.476;11.016;2022-12-07T00:22:04;6.57;;;3.83;;
21299;SDS011;10809;49.476;11.016;2022-12-07T00:24:34;4.17;;;3.67;;
21299;SDS011;10809;49.476;11.016;2022-12-07T00:27:05;4.83;;;3.80;;
21299;SDS011;10809;49.476;11.016;2022-12-07T00:29:35;4.40;;;3.77;;
21299;SDS011;10809;49.476;11.016;2022-12-07T00:32:06;4.60;;;3.73;;
21299;SDS011;10809;49.476;11.016;2022-12-07T00:34:37;4.73;;;4.00;;
21299;SDS011;10809;49.476;11.016;2022-12-07T00:37:07;6.13;;;4.53;;
21299;SDS011;10809;49.476;11.016;2022-12-07T00:39:38;4.63;;;4.17;;
21299;SDS011;10809;49.476;11.016;2022-12-07T00:42:08;4.67;;;3.90;;
21299;SDS011;10809;49.476;11.016;2022-12-07T00:44:38;5.43;;;4.60;;
21299;SDS011;10809;49.476;11.016;2022-12-07T00:47:09;7.43;;;4.37;;
21299;SDS011;10809;49.476;11.016;2022-12-07T00:49:39;4.50;;;4.07;;
21299;SDS011;10809;49.476;11.016;2022-12-07T00:52:10;5.27;;;3.83;;
21299;SDS011;10809;49.476;11.016;2022-12-07T00:54:40;6.23;;;4.47;;
21299;SDS011;10809;49.476;11.016;2022-12-07T00:57:10;4.63;;;4.13;;
21299;SDS011;10809;49.476;11.016;2022-12-07T00:59:40;6.07;;;4.33;;
21299;SDS011;10809;49.476;11.016;2022-12-07T01:02:11;6.97;;;4.73;;
21299;SDS011;10809;49.476;11.016;2022-12-07T01:04:41;5.90;;;4.30;;
21299;SDS011;10809;49.476;11.016;2022-12-07T01:07:12;4.57;;;4.10;;
21299;SDS011;10809;49.476;11.016;2022-12-07T01:09:42;5.90;;;4.83;;
21299;SDS011;10809;49.476;11.016;2022-12-07T01:12:12;6.73;;;4.67;;
21299;SDS011;10809;49.476;11.016;2022-12-07T01:14:43;5.70;;;4.80;;
21299;SDS011;10809;49.476;11.016;2022-12-07T01:17:13;6.20;;;4.77;;
21299;SDS011;10809;49.476;11.016;2022-12-07T01:19:43;7.30;;;5.00;;
21299;SDS011;10809;49.476;11.016;2022-12-07T01:22:14;5.93;;;5.00;;
21299;SDS011;10809;49.476;11.016;2022-12-07T01:24:44;5.57;;;4.47;;
21299;SDS011;10809;49.476;11.016;2022-12-07T01:27:16;5.10;;;4.33;;
21299;SDS011;10809;49.476;11.016;2022-12-07T01:29:47;10.07;;;5.37;;
21299;SDS011;10809;49.476;11.016;2022-12-07T01:32:17;6.77;;;4.87;;
21299;SDS011;10809;49.476;11.016;2022-12-07T01:34:48;8.07;;;5.27;;
21299;SDS011;10809;49.476;11.016;2022-12-07T01:37:18;7.57;;;4.90;;
21299;SDS011;10809;49.476;11.016;2022-12-07T01:39:49;7.27;;;5.27;;
21299;SDS011;10809;49.476;11.016;2022-12-07T01:42:20;7.37;;;5.23;;
21299;SDS011;10809;49.476;11.016;2022-12-07T01:47:50;7.07;;;4.90;;
21299;SDS011;10809;49.476;11.016;2022-12-07T01:50:25;4.87;;;4.30;;
21299;SDS011;10809;49.476;11.016;2022-12-07T01:52:58;5.90;;;4.63;;
21299;SDS011;10809;49.476;11.016;2022-12-07T01:55:31;6.17;;;4.57;;
21299;SDS011;10809;49.476;11.016;2022-12-07T01:58:02;5.93;;;4.60;;
21299;SDS011;10809;49.476;11.016;2022-12-07T02:00:33;5.30;;;4.57;;
21299;SDS011;10809;49.476;11.016;2022-12-07T02:03:06;6.50;;;5.03;;
21299;SDS011;10809;49.476;11.016;2022-12-07T02:05:41;7.13;;;4.97;;
21299;SDS011;10809;49.476;11.016;2022-12-07T02:08:13;6.83;;;4.47;;
21299;SDS011;10809;49.476;11.016;2022-12-07T02:10:43;7.40;;;5.23;;
21299;SDS011;10809;49.476;11.016;2022-12-07T02:13:24;5.90;;;4.90;;
21299;SDS011;10809;49.476;11.016;2022-12-07T02:16:08;7.83;;;5.37;;
21299;SDS011;10809;49.476;11.016;2022-12-07T02:18:58;7.63;;;5.63;;
21299;SDS011;10809;49.476;11.016;2022-12-07T02:30:22;7.53;;;5.77;;
21299;SDS011;10809;49.476;11.016;2022-12-07T02:33:03;7.33;;;5.43;;
21299;SDS011;10809;49.476;11.016;2022-12-07T02:36:21;6.93;;;5.23;;
21299;SDS011;10809;49.476;11.016;2022-12-07T02:38:35;8.50;;;5.70;;
21299;SDS011;10809;49.476;11.016;2022-12-07T02:41:11;7.53;;;5.87;;
21299;SDS011;10809;49.476;11.016;2022-12-07T02:43:47;7.83;;;5.33;;
21299;SDS011;10809;49.476;11.016;2022-12-07T02:46:24;8.57;;;6.27;;
21299;SDS011;10809;49.476;11.016;2022-12-07T02:48:58;9.13;;;5.70;;
21299;SDS011;10809;49.476;11.016;2022-12-07T02:51:31;8.10;;;5.33;;
21299;SDS011;10809;49.476;11.016;2022-12-07T02:54:07;8.40;;;5.57;;
21299;SDS011;10809;49.476;11.016;2022-12-07T03:02:05;8.47;;;5.43;;
21299;SDS011;10809;49.476;11.016;2022-12-07T03:07:49;9.00;;;6.17;;
21299;SDS011;10809;49.476;11.016;2022-12-07T03:16:16;10.07;;;6.10;;
21299;SDS011;10809;49.476;11.016;2022-12-07T03:22:00;8.97;;;5.53;;
21299;SDS011;10809;49.476;11.016;2022-12-07T03:24:35;10.13;;;6.07;;
21299;SDS011;10809;49.476;11.016;2022-12-07T03:27:10;10.23;;;6.20;;
21299;SDS011;10809;49.476;11.016;2022-12-07T03:29:54;8.40;;;5.90;;
21299;SDS011;10809;49.476;11.016;2022-12-07T03:32:34;7.80;;;5.70;;
21299;SDS011;10809;49.476;11.016;2022-12-07T03:35:13;9.83;;;6.73;;
21299;SDS011;10809;49.476;11.016;2022-12-07T03:37:50;9.00;;;5.73;;
21299;SDS011;10809;49.476;11.016;2022-12-07T03:40:35;9.20;;;6.20;;
21299;SDS011;10809;49.476;11.016;2022-12-07T03:43:09;8.33;;;5.73;;
21299;SDS011;10809;49.476;11.016;2022-12-07T03:45:45;8.90;;;6.20;;
21299;SDS011;10809;49.476;11.016;2022-12-07T03:48:33;9.23;;;5.97;;
21299;SDS011;10809;49.476;11.016;2022-12-07T03:53:54;10.67;;;6.30;;
21299;SDS011;10809;49.476;11.016;2022-12-07T03:56:31;8.67;;;5.97;;
21299;SDS011;10809;49.476;11.016;2022-12-07T03:59:03;9.50;;;6.27;;
21299;SDS011;10809;49.476;11.016;2022-12-07T04:01:34;9.27;;;6.53;;
21299;SDS011;10809;49.476;11.016;2022-12-07T04:04:04;7.97;;;6.23;;
21299;SDS011;10809;49.476;11.016;2022-12-07T04:06:34;8.57;;;6.23;;
21299;SDS011;10809;49.476;11.016;2022-12-07T04:09:05;8.93;;;6.50;;
21299;SDS011;10809;49.476;11.016;2022-12-07T04:11:35;10.20;;;6.47;;
21299;SDS011;10809;49.476;11.016;2022-12-07T04:14:05;10.50;;;6.70;;
21299;SDS011;10809;49.476;11.016;2022-12-07T04:16:52;8.77;;;6.07;;
21299;SDS011;10809;49.476;11.016;2022-12-07T04:19:27;9.80;;;6.63;;
21299;SDS011;10809;49.476;11.016;2022-12-07T04:22:00;10.33;;;6.63;;
21299;SDS011;10809;49.476;11.016;2022-12-07T04:24:31;10.10;;;6.50;;
21299;SDS011;10809;49.476;11.016;2022-12-07T04:27:03;12.73;;;7.63;;
21299;SDS011;10809;49.476;11.016;2022-12-07T04:29:33;22.03;;;10.73;;
21299;SDS011;10809;49.476;11.016;2022-12-07T04:32:03;21.37;;;10.27;;
21299;SDS011;10809;49.476;11.016;2022-12-07T04:34:34;18.47;;;9.80;;
21299;SDS011;10809;49.476;11.016;2022-12-07T04:37:05;14.87;;;8.57;;
21299;SDS011;10809;49.476;11.016;2022-12-07T04:39:35;13.33;;;8.07;;
21299;SDS011;10809;49.476;11.016;2022-12-07T04:42:05;13.80;;;8.20;;
21299;SDS011;10809;49.476;11.016;2022-12-07T04:44:36;9.80;;;6.50;;
21299;SDS011;10809;49.476;11.016;2022-12-07T04:47:06;11.67;;;6.87;;
21299;SDS011;10809;49.476;11.016;2022-12-07T04:49:37;11.60;;;7.57;;
21299;SDS011;10809;49.476;11.016;2022-12-07T04:52:07;9.93;;;6.57;;
21299;SDS011;10809;49.476;11.016;2022-12-07T04:54:38;13.40;;;6.87;;
21299;SDS011;10809;49.476;11.016;2022-12-07T04:57:09;10.50;;;6.37;;
21299;SDS011;10809;49.476;11.016;2022-12-07T04:59:39;8.73;;;6.27;;
21299;SDS011;10809;49.476;11.016;2022-12-07T05:02:09;10.77;;;7.33;;
21299;SDS011;10809;49.476;11.016;2022-12-07T05:04:40;9.90;;;7.17;;
21299;SDS011;10809;49.476;11.016;2022-12-07T05:07:10;12.27;;;8.00;;
21299;SDS011;10809;49.476;11.016;2022-12-07T05:09:40;12.33;;;6.43;;
21299;SDS011;10809;49.476;11.016;2022-12-07T05:12:11;10.83;;;7.30;;
21299;SDS011;10809;49.476;11.016;2022-12-07T05:14:41;11.67;;;8.13;;
21299;SDS011;10809;49.476;11.016;2022-12-07T05:17:12;11.03;;;6.90;;
21299;SDS011;10809;49.476;11.016;2022-12-07T05:19:42;11.37;;;7.37;;
21299;SDS011;10809;49.476;11.016;2022-12-07T05:22:12;11.83;;;7.67;;
21299;SDS011;10809;49.476;11.016;2022-12-07T05:24:43;13.77;;;7.33;;
21299;SDS011;10809;49.476;11.016;2022-12-07T05:27:13;10.33;;;7.50;;
21299;SDS011;10809;49.476;11.016;2022-12-07T05:29:44;10.80;;;7.30;;
21299;SDS011;10809;49.476;11.016;2022-12-07T05:32:14;10.70;;;7.10;;
21299;SDS011;10809;49.476;11.016;2022-12-07T05:34:44;11.43;;;7.40;;
21299;SDS011;10809;49.476;11.016;2022-12-07T05:37:15;14.40;;;7.80;;
21299;SDS011;10809;49.476;11.016;2022-12-07T05:39:45;14.17;;;8.33;;
21299;SDS011;10809;49.476;11.016;2022-12-07T05:42:15;15.00;;;8.73;;
21299;SDS011;10809;49.476;11.016;2022-12-07T05:44:47;11.97;;;7.67;;
21299;SDS011;10809;49.476;11.016;2022-12-07T05:47:17;13.50;;;8.57;;
21299;SDS011;10809;49.476;11.016;2022-12-07T05:49:47;12.37;;;7.90;;
21299;SDS011;10809;49.476;11.016;2022-12-07T05:52:18;12.30;;;7.67;;
21299;SDS011;10809;49.476;11.016;2022-12-07T05:54:48;13.90;;;7.60;;
21299;SDS011;10809;49.476;11.016;2022-12-07T05:57:19;14.83;;;8.40;;
21299;SDS011;10809;49.476;11.016;2022-12-07T05:59:49;12.57;;;7.90;;
21299;SDS011;10809;49.476;11.016;2022-12-07T06:02:20;11.90;;;7.60;;
21299;SDS011;10809;49.476;11.016;2022-12-07T06:04:50;15.47;;;8.67;;
21299;SDS011;10809;49.476;11.016;2022-12-07T06:07:20;12.63;;;7.53;;
21299;SDS011;10809;49.476;11.016;2022-12-07T06:09:51;14.67;;;8.90;;
21299;SDS011;10809;49.476;11.016;2022-12-07T06:12:21;13.87;;;8.30;;
21299;SDS011;10809;49.476;11.016;2022-12-07T06:15:04;13.50;;;8.10;;
21299;SDS011;10809;49.476;11.016;2022-12-07T06:17:34;14.87;;;8.77;;
21299;SDS011;10809;49.476;11.016;2022-12-07T06:20:05;14.17;;;7.63;;
21299;SDS011;10809;49.476;11.016;2022-12-07T06:22:36;13.53;;;8.57;;
21299;SDS011;10809;49.476;11.016;2022-12-07T06:25:06;13.73;;;8.20;;
21299;SDS011;10809;49.476;11.016;2022-12-07T06:27:37;12.77;;;7.80;;
21299;SDS011;10809;49.476;11.016;2022-12-07T06:30:07;13.47;;;8.43;;
21299;SDS011;10809;49.476;11.016;2022-12-07T06:32:38;14.00;;;8.23;;
21299;SDS011;10809;49.476;11.016;2022-12-07T06:35:08;12.70;;;8.23;;
21299;SDS011;10809;49.476;11.016;2022-12-07T06:37:39;14.07;;;8.73;;
21299;SDS011;10809;49.476;11.016;2022-12-07T06:40:09;15.37;;;9.30;;
21299;SDS011;10809;49.476;11.016;2022-12-07T06:42:40;13.00;;;8.27;;
21299;SDS011;10809;49.476;11.016;2022-12-07T06:45:10;14.93;;;8.97;;
21299;SDS011;10809;49.476;11.016;2022-12-07T06:47:41;14.20;;;8.53;;
21299;SDS011;10809;49.476;11.016;2022-12-07T06:50:11;13.80;;;9.13;;
21299;SDS011;10809;49.476;11.016;2022-12-07T06:52:41;13.50;;;7.97;;
21299;SDS011;10809;49.476;11.016;2022-12-07T06:55:12;14.07;;;8.77;;
21299;SDS011;10809;49.476;11.016;2022-12-07T06:57:42;16.37;;;9.00;;
21299;SDS011;10809;49.476;11.016;2022-12-07T07:00:13;17.60;;;9.63;;
21299;SDS011;10809;49.476;11.016;2022-12-07T07:02:44;16.33;;;9.47;;
21299;SDS011;10809;49.476;11.016;2022-12-07T07:05:14;15.60;;;9.50;;
21299;SDS011;10809;49.476;11.016;2022-12-07T07:07:45;17.37;;;9.53;;
21299;SDS011;10809;49.476;11.016;2022-12-07T07:10:16;15.17;;;9.07;;
21299;SDS011;10809;49.476;11.016;2022-12-07T07:12:46;13.50;;;8.00;;
21299;SDS011;10809;49.476;11.016;2022-12-07T07:15:17;15.23;;;9.33;;
21299;SDS011;10809;49.476;11.016;2022-12-07T07:17:47;13.93;;;8.43;;
21299;SDS011;10809;49.476;11.016;2022-12-07T07:20:17;14.00;;;8.53;;
21299;SDS011;10809;49.476;11.016;2022-12-07T07:22:48;16.00;;;9.50;;
21299;SDS011;10809;49.476;11.016;2022-12-07T07:25:19;14.77;;;8.83;;
21299;SDS011;10809;49.476;11.016;2022-12-07T07:27:49;16.53;;;9.77;;
21299;SDS011;10809;49.476;11.016;2022-12-07T07:30:19;13.80;;;8.67;;
21299;SDS011;10809;49.476;11.016;2022-12-07T07:32:50;14.30;;;9.10;;
21299;SDS011;10809;49.476;11.016;2022-12-07T07:35:20;13.27;;;8.17;;
21299;SDS011;10809;49.476;11.016;2022-12-07T07:37:51;14.77;;;8.67;;
21299;SDS011;10809;49.476;11.016;2022-12-07T07:40:22;13.80;;;8.17;;
21299;SDS011;10809;49.476;11.016;2022-12-07T07:42:53;15.10;;;8.80;;
21299;SDS011;10809;49.476;11.016;2022-12-07T07:45:25;13.17;;;7.77;;
21299;SDS011;10809;49.476;11.016;2022-12-07T07:47:56;12.60;;;8.13;;
21299;SDS011;10809;49.476;11.016;2022-12-07T07:50:27;12.07;;;7.40;;
21299;SDS011;10809;49.476;11.016;2022-12-07T07:52:57;14.17;;;8.57;;
21299;SDS011;10809;49.476;11.016;2022-12-07T07:55:28;14.47;;;8.77;;
21299;SDS011;10809;49.476;11.016;2022-12-07T07:57:58;15.13;;;9.13;;
21299;SDS011;10809;49.476;11.016;2022-12-07T08:00:29;15.40;;;8.67;;
21299;SDS011;10809;49.476;11.016;2022-12-07T08:02:59;14.30;;;8.60;;
21299;SDS011;10809;49.476;11.016;2022-12-07T08:05:29;13.50;;;8.57;;
21299;SDS011;10809;49.476;11.016;2022-12-07T08:08:00;12.70;;;8.30;;
21299;SDS011;10809;49.476;11.016;2022-12-07T08:10:30;14.40;;;8.10;;
21299;SDS011;10809;49.476;11.016;2022-12-07T08:13:02;14.17;;;8.50;;
21299;SDS011;10809;49.476;11.016;2022-12-07T08:15:44;12.67;;;8.17;;
21299;SDS011;10809;49.476;11.016;2022-12-07T08:18:16;13.37;;;7.37;;
21299;SDS011;10809;49.476;11.016;2022-12-07T08:20:46;13.10;;;7.97;;
21299;SDS011;10809;49.476;11.016;2022-12-07T08:23:17;14.57;;;9.27;;
21299;SDS011;10809;49.476;11.016;2022-12-07T08:25:47;11.50;;;7.70;;
21299;SDS011;10809;49.476;11.016;2022-12-07T08:28:17;13.10;;;8.27;;
21299;SDS011;10809;49.476;11.016;2022-12-07T08:30:48;14.87;;;8.20;;
21299;SDS011;10809;49.476;11.016;2022-12-07T08:33:18;17.53;;;8.43;;
21299;SDS011;10809;49.476;11.016;2022-12-07T08:35:49;14.57;;;8.20;;
21299;SDS011;10809;49.476;11.016;2022-12-07T08:38:20;14.63;;;8.33;;
21299;SDS011;10809;49.476;11.016;2022-12-07T08:40:54;12.73;;;7.97;;
21299;SDS011;10809;49.476;11.016;2022-12-07T08:43:25;14.57;;;7.57;;
21299;SDS011;10809;49.476;11.016;2022-12-07T08:48:36;11.87;;;6.90;;
21299;SDS011;10809;49.476;11.016;2022-12-07T08:51:11;11.50;;;7.43;;
21299;SDS011;10809;49.476;11.016;2022-12-07T08:53:41;12.20;;;7.60;;
21299;SDS011;10809;49.476;11.016;2022-12-07T08:56:13;11.50;;;7.00;;
21299;SDS011;10809;49.476;11.016;2022-12-07T08:58:43;11.87;;;7.30;;
21299;SDS011;10809;49.476;11.016;2022-12-07T09:01:14;12.27;;;7.40;;
21299;SDS011;10809;49.476;11.016;2022-12-07T09:03:45;11.90;;;7.70;;
21299;SDS011;10809;49.476;11.016;2022-12-07T09:06:15;12.37;;;7.43;;
21299;SDS011;10809;49.476;11.016;2022-12-07T09:08:48;11.97;;;7.50;;
21299;SDS011;10809;49.476;11.016;2022-12-07T09:11:21;11.47;;;8.10;;
21299;SDS011;10809;49.476;11.016;2022-12-07T09:13:51;10.70;;;6.70;;
21299;SDS011;10809;49.476;11.016;2022-12-07T09:16:21;12.50;;;7.43;;
21299;SDS011;10809;49.476;11.016;2022-12-07T09:18:52;10.30;;;6.97;;
21299;SDS011;10809;49.476;11.016;2022-12-07T09:21:22;10.80;;;7.13;;
21299;SDS011;10809;49.476;11.016;2022-12-07T09:23:53;13.57;;;7.43;;
21299;SDS011;10809;49.476;11.016;2022-12-07T09:26:23;11.20;;;6.77;;
21299;SDS011;10809;49.476;11.016;2022-12-07T09:28:53;12.60;;;7.37;;
21299;SDS011;10809;49.476;11.016;2022-12-07T09:31:24;11.07;;;6.30;;
21299;SDS011;10809;49.476;11.016;2022-12-07T09:33:59;9.83;;;6.47;;
21299;SDS011;10809;49.476;11.016;2022-12-07T09:36:30;11.33;;;6.40;;
21299;SDS011;10809;49.476;11.016;2022-12-07T09:39:00;10.93;;;6.80;;
21299;SDS011;10809;49.476;11.016;2022-12-07T09:41:31;13.17;;;6.20;;
21299;SDS011;10809;49.476;11.016;2022-12-07T09:44:04;8.53;;;5.43;;
21299;SDS011;10809;49.476;11.016;2022-12-07T09:46:36;8.30;;;5.67;;
21299;SDS011;10809;49.476;11.016;2022-12-07T09:49:10;8.53;;;5.70;;
21299;SDS011;10809;49.476;11.016;2022-12-07T09:51:44;9.73;;;6.17;;
21299;SDS011;10809;49.476;11.016;2022-12-07T09:54:15;10.40;;;5.77;;
21299;SDS011;10809;49.476;11.016;2022-12-07T09:56:46;11.27;;;6.63;;
21299;SDS011;10809;49.476;11.016;2022-12-07T09:59:17;9.83;;;6.13;;
21299;SDS011;10809;49.476;11.016;2022-12-07T10:01:49;11.87;;;6.47;;
21299;SDS011;10809;49.476;11.016;2022-12-07T10:04:21;9.27;;;6.30;;
21299;SDS011;10809;49.476;11.016;2022-12-07T10:06:53;9.10;;;6.17;;
21299;SDS011;10809;49.476;11.016;2022-12-07T10:09:24;10.20;;;6.17;;
21299;SDS011;10809;49.476;11.016;2022-12-07T10:11:59;9.50;;;6.40;;
21299;SDS011;10809;49.476;11.016;2022-12-07T10:14:39;10.37;;;6.30;;
21299;SDS011;10809;49.476;11.016;2022-12-07T10:17:36;7.90;;;5.67;;
21299;SDS011;10809;49.476;11.016;2022-12-07T10:20:14;9.03;;;6.07;;
21299;SDS011;10809;49.476;11.016;2022-12-07T10:25:43;8.03;;;5.67;;
21299;SDS011;10809;49.476;11.016;2022-12-07T10:28:15;8.80;;;6.17;;
21299;SDS011;10809;49.476;11.016;2022-12-07T10:33:30;8.00;;;5.53;;
21299;SDS011;10809;49.476;11.016;2022-12-07T10:38:53;8.87;;;5.77;;
21299;SDS011;10809;49.476;11.016;2022-12-07T10:41:29;9.87;;;5.67;;
21299;SDS011;10809;49.476;11.016;2022-12-07T10:44:00;8.47;;;5.83;;
21299;SDS011;10809;49.476;11.016;2022-12-07T10:46:46;8.40;;;5.60;;
21299;SDS011;10809;49.476;11.016;2022-12-07T10:49:30;9.17;;;5.77;;
21299;SDS011;10809;49.476;11.016;2022-12-07T11:01:25;10.33;;;5.87;;
21299;SDS011;10809;49.476;11.016;2022-12-07T11:04:07;6.90;;;5.30;;
21299;SDS011;10809;49.476;11.016;2022-12-07T11:15:22;9.70;;;5.93;;
21299;SDS011;10809;49.476;11.016;2022-12-07T11:29:40;11.90;;;6.37;;
21299;SDS011;10809;49.476;11.016;2022-12-07T11:38:11;9.57;;;6.23;;
21299;SDS011;10809;49.476;11.016;2022-12-07T11:40:49;8.40;;;5.60;;
21299;SDS011;10809;49.476;11.016;2022-12-07T11:43:27;11.63;;;7.37;;
21299;SDS011;10809;49.476;11.016;2022-12-07T11:46:12;12.37;;;7.30;;
21299;SDS011;10809;49.476;11.016;2022-12-07T11:48:54;8.47;;;6.20;;
21299;SDS011;10809;49.476;11.016;2022-12-07T11:51:33;9.67;;;6.10;;
21299;SDS011;10809;49.476;11.016;2022-12-07T11:54:16;8.47;;;5.53;;
21299;SDS011;10809;49.476;11.016;2022-12-07T11:56:51;9.30;;;5.93;;
21299;SDS011;10809;49.476;11.016;2022-12-07T11:59:28;10.10;;;6.20;;
21299;SDS011;10809;49.476;11.016;2022-12-07T12:02:12;10.27;;;6.40;;
21299;SDS011;10809;49.476;11.016;2022-12-07T12:04:47;8.60;;;6.17;;
21299;SDS011;10809;49.476;11.016;2022-12-07T12:07:24;8.10;;;6.03;;
21299;SDS011;10809;49.476;11.016;2022-12-07T12:09:58;8.17;;;6.10;;
21299;SDS011;10809;49.476;11.016;2022-12-07T12:18:31;9.77;;;6.57;;
21299;SDS011;10809;49.476;11.016;2022-12-07T12:21:14;10.37;;;5.70;;
21299;SDS011;10809;49.476;11.016;2022-12-07T12:23:56;9.83;;;5.60;;
21299;SDS011;10809;49.476;11.016;2022-12-07T12:26:32;9.03;;;6.27;;
21299;SDS011;10809;49.476;11.016;2022-12-07T12:29:06;10.63;;;6.17;;
21299;SDS011;10809;49.476;11.016;2022-12-07T12:32:06;7.47;;;5.77;;
21299;SDS011;10809;49.476;11.016;2022-12-07T12:42:47;10.03;;;5.70;;
21299;SDS011;10809;49.476;11.016;2022-12-07T12:45:22;7.43;;;5.60;;
21299;SDS011;10809;49.476;11.016;2022-12-07T12:48:03;7.63;;;5.90;;
21299;SDS011;10809;49.476;11.016;2022-12-07T12:50:35;7.30;;;5.17;;
21299;SDS011;10809;49.476;11.016;2022-12-07T12:53:15;9.37;;;6.13;;
21299;SDS011;10809;49.476;11.016;2022-12-07T12:55:58;9.57;;;5.57;;
21299;SDS011;10809;49.476;11.016;2022-12-07T12:58:34;11.23;;;6.53;;
21299;SDS011;10809;49.476;11.016;2022-12-07T13:01:31;9.53;;;5.90;;
21299;SDS011;10809;49.476;11.016;2022-12-07T13:04:17;6.70;;;5.50;;
21299;SDS011;10809;49.476;11.016;2022-12-07T13:06:53;7.73;;;5.60;;
21299;SDS011;10809;49.476;11.016;2022-12-07T13:09:25;8.63;;;5.73;;
21299;SDS011;10809;49.476;11.016;2022-12-07T13:12:02;7.60;;;5.07;;
21299;SDS011;10809;49.476;11.016;2022-12-07T13:14:43;7.47;;;4.77;;
21299;SDS011;10809;49.476;11.016;2022-12-07T13:20:03;7.60;;;5.07;;
21299;SDS011;10809;49.476;11.016;2022-12-07T13:22:39;8.33;;;4.83;;
21299;SDS011;10809;49.476;11.016;2022-12-07T13:28:13;7.30;;;5.17;;
21299;SDS011;10809;49.476;11.016;2022-12-07T13:30:57;7.37;;;5.47;;
21299;SDS011;10809;49.476;11.016;2022-12-07T13:33:34;7.10;;;4.97;;
21299;SDS011;10809;49.476;11.016;2022-12-07T13:36:09;8.37;;;5.30;;
21299;SDS011;10809;49.476;11.016;2022-12-07T13:38:58;9.70;;;5.53;;
21299;SDS011;10809;49.476;11.016;2022-12-07T13:41:43;7.37;;;5.07;;
21299;SDS011;10809;49.476;11.016;2022-12-07T13:44:15;7.33;;;5.57;;
21299;SDS011;10809;49.476;11.016;2022-12-07T13:49:25;8.73;;;5.97;;
21299;SDS011;10809;49.476;11.016;2022-12-07T13:52:13;7.90;;;5.50;;
21299;SDS011;10809;49.476;11.016;2022-12-07T13:57:30;6.93;;;5.00;;
21299;SDS011;10809;49.476;11.016;2022-12-07T14:00:05;7.33;;;5.93;;
21299;SDS011;10809;49.476;11.016;2022-12-07T14:05:31;7.83;;;5.30;;
21299;SDS011;10809;49.476;11.016;2022-12-07T14:08:03;8.57;;;5.10;;
21299;SDS011;10809;49.476;11.016;2022-12-07T14:10:55;9.10;;;5.67;;
21299;SDS011;10809;49.476;11.016;2022-12-07T14:13:34;8.80;;;5.20;;
21299;SDS011;10809;49.476;11.016;2022-12-07T14:18:58;9.77;;;6.10;;
21299;SDS011;10809;49.476;11.016;2022-12-07T14:21:31;9.50;;;5.93;;
21299;SDS011;10809;49.476;11.016;2022-12-07T14:24:19;8.90;;;6.50;;
21299;SDS011;10809;49.476;11.016;2022-12-07T14:26:51;9.60;;;6.40;;
21299;SDS011;10809;49.476;11.016;2022-12-07T14:31:55;9.80;;;5.93;;
21299;SDS011;10809;49.476;11.016;2022-12-07T14:34:27;11.90;;;8.23;;
21299;SDS011;10809;49.476;11.016;2022-12-07T14:36:58;8.77;;;6.03;;
21299;SDS011;10809;49.476;11.016;2022-12-07T14:39:28;8.77;;;4.80;;
21299;SDS011;10809;49.476;11.016;2022-12-07T14:41:58;8.27;;;4.90;;
21299;SDS011;10809;49.476;11.016;2022-12-07T14:44:29;9.90;;;5.70;;
21299;SDS011;10809;49.476;11.016;2022-12-07T14:46:59;11.73;;;6.50;;
21299;SDS011;10809;49.476;11.016;2022-12-07T14:49:29;7.63;;;4.67;;
21299;SDS011;10809;49.476;11.016;2022-12-07T14:52:00;9.60;;;5.47;;
21299;SDS011;10809;49.476;11.016;2022-12-07T14:54:30;7.87;;;4.80;;
21299;SDS011;10809;49.476;11.016;2022-12-07T14:57:02;6.03;;;4.67;;
21299;SDS011;10809;49.476;11.016;2022-12-07T14:59:32;8.37;;;4.80;;
21299;SDS011;10809;49.476;11.016;2022-12-07T15:02:03;6.30;;;4.37;;
21299;SDS011;10809;49.476;11.016;2022-12-07T15:04:34;6.50;;;3.90;;
21299;SDS011;10809;49.476;11.016;2022-12-07T15:07:05;7.90;;;4.57;;
21299;SDS011;10809;49.476;11.016;2022-12-07T15:09:41;8.57;;;4.70;;
21299;SDS011;10809;49.476;11.016;2022-12-07T15:12:11;8.17;;;5.03;;
21299;SDS011;10809;49.476;11.016;2022-12-07T15:14:42;7.57;;;5.00;;
21299;SDS011;10809;49.476;11.016;2022-12-07T15:17:12;8.03;;;5.33;;
21299;SDS011;10809;49.476;11.016;2022-12-07T15:19:43;6.10;;;4.40;;
21299;SDS011;10809;49.476;11.016;2022-12-07T15:22:13;8.40;;;5.83;;
21299;SDS011;10809;49.476;11.016;2022-12-07T15:24:43;9.00;;;5.47;;
21299;SDS011;10809;49.476;11.016;2022-12-07T15:27:14;9.77;;;6.27;;
21299;SDS011;10809;49.476;11.016;2022-12-07T15:29:44;9.90;;;5.70;;
21299;SDS011;10809;49.476;11.016;2022-12-07T15:32:14;10.57;;;6.87;;
21299;SDS011;10809;49.476;11.016;2022-12-07T15:34:45;9.90;;;5.93;;
21299;SDS011;10809;49.476;11.016;2022-12-07T15:37:15;11.10;;;6.60;;
21299;SDS011;10809;49.476;11.016;2022-12-07T15:39:46;9.67;;;6.77;;
21299;SDS011;10809;49.476;11.016;2022-12-07T15:42:16;9.40;;;6.60;;
21299;SDS011;10809;49.476;11.016;2022-12-07T15:44:47;9.80;;;6.33;;
21299;SDS011;10809;49.476;11.016;2022-12-07T15:47:44;11.43;;;7.00;;
21299;SDS011;10809;49.476;11.016;2022-12-07T15:50:15;9.77;;;6.47;;
21299;SDS011;10809;49.476;11.016;2022-12-07T15:52:46;9.20;;;6.40;;
21299;SDS011;10809;49.476;11.016;2022-12-07T15:55:17;10.60;;;6.00;;
21299;SDS011;10809;49.476;11.016;2022-12-07T15:57:47;11.60;;;7.03;;
21299;SDS011;10809;49.476;11.016;2022-12-07T16:00:19;10.63;;;7.07;;
21299;SDS011;10809;49.476;11.016;2022-12-07T16:02:50;11.23;;;6.47;;
21299;SDS011;10809;49.476;11.016;2022-12-07T16:05:20;13.77;;;7.07;;
21299;SDS011;10809;49.476;11.016;2022-12-07T16:07:50;11.77;;;7.00;;
21299;SDS011;10809;49.476;11.016;2022-12-07T16:10:21;11.20;;;7.30;;
21299;SDS011;10809;49.476;11.016;2022-12-07T16:12:51;11.63;;;7.13;;
21299;SDS011;10809;49.476;11.016;2022-12-07T16:15:22;11.17;;;6.63;;
21299;SDS011;10809;49.476;11.016;2022-12-07T16:17:54;9.20;;;7.03;;
21299;SDS011;10809;49.476;11.016;2022-12-07T16:20:25;8.37;;;6.23;;
21299;SDS011;10809;49.476;11.016;2022-12-07T16:22:56;11.43;;;7.17;;
21299;SDS011;10809;49.476;11.016;2022-12-07T16:25:26;10.83;;;6.63;;
21299;SDS011;10809;49.476;11.016;2022-12-07T16:27:57;11.57;;;7.83;;
21299;SDS011;10809;49.476;11.016;2022-12-07T16:30:27;10.47;;;7.10;;
21299;SDS011;10809;49.476;11.016;2022-12-07T16:32:58;10.87;;;6.97;;
21299;SDS011;10809;49.476;11.016;2022-12-07T16:35:28;11.17;;;6.23;;
21299;SDS011;10809;49.476;11.016;2022-12-07T16:37:58;8.80;;;6.63;;
21299;SDS011;10809;49.476;11.016;2022-12-07T16:40:29;8.73;;;6.57;;
21299;SDS011;10809;49.476;11.016;2022-12-07T16:42:59;10.30;;;6.93;;
21299;SDS011;10809;49.476;11.016;2022-12-07T16:45:29;10.00;;;6.43;;
21299;SDS011;10809;49.476;11.016;2022-12-07T16:48:00;10.37;;;6.57;;
21299;SDS011;10809;49.476;11.016;2022-12-07T16:50:30;11.00;;;6.57;;
21299;SDS011;10809;49.476;11.016;2022-12-07T16:53:00;11.30;;;7.23;;
21299;SDS011;10809;49.476;11.016;2022-12-07T16:55:31;11.67;;;7.67;;